sensor_id;sensor_type;location;lat;lon;timestamp;P1;durP1;ratioP1;P2;durP2;ratioP2
19482;SDS011;9882;51.166;6.992;2023-03-12T00:01:09;12.52;;;5.15;;
19482;SDS011;9882;51.166;6.992;2023-03-12T00:03:39;15.68;;;5.45;;
19482;SDS011;9882;51.166;6.992;2023-03-12T00:06:09;15.75;;;5.45;;
19482;SDS011;9882;51.166;6.992;2023-03-12T00:08:38;15.80;;;5.43;;
19482;SDS011;9882;51.166;6.992;2023-03-12T00:11:08;16.25;;;5.03;;
19482;SDS011;9882;51.166;6.992;2023-03-12T00:13:38;12.35;;;5.05;;
19482;SDS011;9882;51.166;6.992;2023-03-12T00:16:07;15.43;;;6.05;;
19482;SDS011;9882;51.166;6.992;2023-03-12T00:18:38;12.23;;;5.28;;
19482;SDS011;9882;51.166;6.992;2023-03-12T00:21:07;13.40;;;5.00;;
19482;SDS011;9882;51.166;6.992;2023-03-12T00:23:37;11.23;;;4.90;;
19482;SDS011;9882;51.166;6.992;2023-03-12T00:26:06;13.93;;;5.38;;
19482;SDS011;9882;51.166;6.992;2023-03-12T00:28:36;10.38;;;5.45;;
19482;SDS011;9882;51.166;6.992;2023-03-12T00:31:12;15.23;;;5.75;;
19482;SDS011;9882;51.166;6.992;2023-03-12T00:33:41;13.70;;;4.97;;
19482;SDS011;9882;51.166;6.992;2023-03-12T00:36:11;12.25;;;5.47;;
19482;SDS011;9882;51.166;6.992;2023-03-12T00:38:39;9.65;;;5.03;;
19482;SDS011;9882;51.166;6.992;2023-03-12T00:41:09;22.17;;;6.32;;
19482;SDS011;9882;51.166;6.992;2023-03-12T00:43:37;17.17;;;5.38;;
19482;SDS011;9882;51.166;6.992;2023-03-12T00:46:06;11.82;;;4.90;;
19482;SDS011;9882;51.166;6.992;2023-03-12T00:48:34;19.85;;;7.53;;
19482;SDS011;9882;51.166;6.992;2023-03-12T00:51:03;12.38;;;5.65;;
19482;SDS011;9882;51.166;6.992;2023-03-12T00:53:34;13.55;;;5.30;;
19482;SDS011;9882;51.166;6.992;2023-03-12T00:56:04;14.30;;;5.57;;
19482;SDS011;9882;51.166;6.992;2023-03-12T00:58:35;12.07;;;4.45;;
19482;SDS011;9882;51.166;6.992;2023-03-12T01:01:04;12.07;;;4.72;;
19482;SDS011;9882;51.166;6.992;2023-03-12T01:03:33;7.78;;;4.60;;
19482;SDS011;9882;51.166;6.992;2023-03-12T01:06:03;21.70;;;6.80;;
19482;SDS011;9882;51.166;6.992;2023-03-12T01:08:35;16.40;;;5.93;;
19482;SDS011;9882;51.166;6.992;2023-03-12T01:11:04;16.98;;;5.18;;
19482;SDS011;9882;51.166;6.992;2023-03-12T01:13:33;10.75;;;5.05;;
19482;SDS011;9882;51.166;6.992;2023-03-12T01:16:03;11.10;;;5.07;;
19482;SDS011;9882;51.166;6.992;2023-03-12T01:18:32;10.30;;;4.90;;
19482;SDS011;9882;51.166;6.992;2023-03-12T01:21:01;11.68;;;4.88;;
19482;SDS011;9882;51.166;6.992;2023-03-12T01:23:31;13.27;;;5.65;;
19482;SDS011;9882;51.166;6.992;2023-03-12T01:26:02;25.50;;;5.53;;
19482;SDS011;9882;51.166;6.992;2023-03-12T01:28:31;15.55;;;5.72;;
19482;SDS011;9882;51.166;6.992;2023-03-12T01:31:05;14.88;;;5.32;;
19482;SDS011;9882;51.166;6.992;2023-03-12T01:33:34;20.00;;;7.05;;
19482;SDS011;9882;51.166;6.992;2023-03-12T01:36:04;13.50;;;5.95;;
19482;SDS011;9882;51.166;6.992;2023-03-12T01:38:42;10.68;;;5.53;;
19482;SDS011;9882;51.166;6.992;2023-03-12T01:41:13;15.73;;;7.15;;
19482;SDS011;9882;51.166;6.992;2023-03-12T01:43:42;18.40;;;6.10;;
19482;SDS011;9882;51.166;6.992;2023-03-12T01:46:30;15.68;;;5.32;;
19482;SDS011;9882;51.166;6.992;2023-03-12T01:49:06;15.35;;;6.22;;
19482;SDS011;9882;51.166;6.992;2023-03-12T01:51:39;14.70;;;5.70;;
19482;SDS011;9882;51.166;6.992;2023-03-12T01:54:11;16.95;;;6.07;;
19482;SDS011;9882;51.166;6.992;2023-03-12T01:56:45;9.80;;;4.72;;
19482;SDS011;9882;51.166;6.992;2023-03-12T01:59:17;13.77;;;5.35;;
19482;SDS011;9882;51.166;6.992;2023-03-12T02:01:50;20.58;;;5.28;;
19482;SDS011;9882;51.166;6.992;2023-03-12T02:04:21;13.20;;;5.65;;
19482;SDS011;9882;51.166;6.992;2023-03-12T02:06:53;14.30;;;5.22;;
19482;SDS011;9882;51.166;6.992;2023-03-12T02:09:30;6.82;;;4.13;;
19482;SDS011;9882;51.166;6.992;2023-03-12T02:12:02;17.33;;;5.30;;
19482;SDS011;9882;51.166;6.992;2023-03-12T02:14:32;14.63;;;4.40;;
19482;SDS011;9882;51.166;6.992;2023-03-12T02:17:02;14.38;;;5.00;;
19482;SDS011;9882;51.166;6.992;2023-03-12T02:19:33;14.68;;;4.72;;
19482;SDS011;9882;51.166;6.992;2023-03-12T02:22:09;17.38;;;4.68;;
19482;SDS011;9882;51.166;6.992;2023-03-12T02:24:40;12.40;;;5.28;;
19482;SDS011;9882;51.166;6.992;2023-03-12T02:27:18;14.27;;;5.32;;
19482;SDS011;9882;51.166;6.992;2023-03-12T02:29:49;10.15;;;4.93;;
19482;SDS011;9882;51.166;6.992;2023-03-12T02:32:20;7.50;;;4.10;;
19482;SDS011;9882;51.166;6.992;2023-03-12T02:34:54;11.45;;;5.00;;
19482;SDS011;9882;51.166;6.992;2023-03-12T02:37:24;9.38;;;4.45;;
19482;SDS011;9882;51.166;6.992;2023-03-12T02:39:54;12.23;;;3.97;;
19482;SDS011;9882;51.166;6.992;2023-03-12T02:42:34;8.90;;;4.00;;
19482;SDS011;9882;51.166;6.992;2023-03-12T02:45:04;6.55;;;3.45;;
19482;SDS011;9882;51.166;6.992;2023-03-12T02:47:34;9.90;;;4.05;;
19482;SDS011;9882;51.166;6.992;2023-03-12T02:50:04;10.35;;;3.47;;
19482;SDS011;9882;51.166;6.992;2023-03-12T02:52:33;9.35;;;4.15;;
19482;SDS011;9882;51.166;6.992;2023-03-12T02:55:04;11.82;;;4.00;;
19482;SDS011;9882;51.166;6.992;2023-03-12T02:57:35;8.15;;;4.07;;
19482;SDS011;9882;51.166;6.992;2023-03-12T03:00:07;9.27;;;3.95;;
19482;SDS011;9882;51.166;6.992;2023-03-12T03:02:41;8.68;;;3.58;;
19482;SDS011;9882;51.166;6.992;2023-03-12T03:05:11;7.30;;;3.72;;
19482;SDS011;9882;51.166;6.992;2023-03-12T03:07:40;9.02;;;3.60;;
19482;SDS011;9882;51.166;6.992;2023-03-12T03:10:09;10.68;;;4.00;;
19482;SDS011;9882;51.166;6.992;2023-03-12T03:12:40;11.50;;;4.20;;
19482;SDS011;9882;51.166;6.992;2023-03-12T03:15:10;7.57;;;3.83;;
19482;SDS011;9882;51.166;6.992;2023-03-12T03:17:39;15.60;;;4.47;;
19482;SDS011;9882;51.166;6.992;2023-03-12T03:20:09;10.13;;;4.35;;
19482;SDS011;9882;51.166;6.992;2023-03-12T03:22:38;14.75;;;4.40;;
19482;SDS011;9882;51.166;6.992;2023-03-12T03:25:08;17.52;;;5.70;;
19482;SDS011;9882;51.166;6.992;2023-03-12T03:27:38;18.50;;;5.05;;
19482;SDS011;9882;51.166;6.992;2023-03-12T03:30:09;8.60;;;4.13;;
19482;SDS011;9882;51.166;6.992;2023-03-12T03:32:43;16.55;;;5.47;;
19482;SDS011;9882;51.166;6.992;2023-03-12T03:35:14;21.73;;;7.18;;
19482;SDS011;9882;51.166;6.992;2023-03-12T03:37:43;15.65;;;5.82;;
19482;SDS011;9882;51.166;6.992;2023-03-12T03:40:13;18.48;;;5.20;;
19482;SDS011;9882;51.166;6.992;2023-03-12T03:42:42;11.00;;;5.30;;
19482;SDS011;9882;51.166;6.992;2023-03-12T03:45:13;16.83;;;5.65;;
19482;SDS011;9882;51.166;6.992;2023-03-12T03:47:43;11.23;;;4.47;;
19482;SDS011;9882;51.166;6.992;2023-03-12T03:50:12;16.70;;;5.25;;
19482;SDS011;9882;51.166;6.992;2023-03-12T03:52:41;14.48;;;5.25;;
19482;SDS011;9882;51.166;6.992;2023-03-12T03:55:10;8.23;;;3.92;;
19482;SDS011;9882;51.166;6.992;2023-03-12T03:57:39;12.88;;;5.15;;
19482;SDS011;9882;51.166;6.992;2023-03-12T04:00:09;30.60;;;12.10;;
19482;SDS011;9882;51.166;6.992;2023-03-12T04:02:40;122.85;;;38.97;;
19482;SDS011;9882;51.166;6.992;2023-03-12T04:05:11;39.60;;;17.75;;
19482;SDS011;9882;51.166;6.992;2023-03-12T04:07:42;37.97;;;15.15;;
19482;SDS011;9882;51.166;6.992;2023-03-12T04:10:13;51.00;;;26.30;;
19482;SDS011;9882;51.166;6.992;2023-03-12T04:12:42;33.05;;;15.85;;
19482;SDS011;9882;51.166;6.992;2023-03-12T04:15:11;41.83;;;17.35;;
19482;SDS011;9882;51.166;6.992;2023-03-12T04:17:42;46.95;;;20.67;;
19482;SDS011;9882;51.166;6.992;2023-03-12T04:20:12;40.45;;;15.82;;
19482;SDS011;9882;51.166;6.992;2023-03-12T04:22:42;34.53;;;15.80;;
19482;SDS011;9882;51.166;6.992;2023-03-12T04:25:11;38.42;;;15.70;;
19482;SDS011;9882;51.166;6.992;2023-03-12T04:27:40;36.58;;;13.38;;
19482;SDS011;9882;51.166;6.992;2023-03-12T04:30:10;30.98;;;12.20;;
19482;SDS011;9882;51.166;6.992;2023-03-12T04:32:40;30.70;;;13.10;;
19482;SDS011;9882;51.166;6.992;2023-03-12T04:35:11;31.38;;;12.50;;
19482;SDS011;9882;51.166;6.992;2023-03-12T04:37:40;37.42;;;14.70;;
19482;SDS011;9882;51.166;6.992;2023-03-12T04:40:11;30.83;;;13.07;;
19482;SDS011;9882;51.166;6.992;2023-03-12T04:42:41;31.73;;;14.45;;
19482;SDS011;9882;51.166;6.992;2023-03-12T04:45:11;32.83;;;14.82;;
19482;SDS011;9882;51.166;6.992;2023-03-12T04:47:44;30.55;;;13.43;;
19482;SDS011;9882;51.166;6.992;2023-03-12T04:50:16;43.60;;;21.13;;
19482;SDS011;9882;51.166;6.992;2023-03-12T04:52:45;38.25;;;22.23;;
19482;SDS011;9882;51.166;6.992;2023-03-12T04:55:15;34.55;;;17.08;;
19482;SDS011;9882;51.166;6.992;2023-03-12T04:57:44;38.88;;;18.23;;
19482;SDS011;9882;51.166;6.992;2023-03-12T05:00:14;31.70;;;14.70;;
19482;SDS011;9882;51.166;6.992;2023-03-12T05:02:45;27.88;;;10.73;;
19482;SDS011;9882;51.166;6.992;2023-03-12T05:05:16;31.90;;;16.85;;
19482;SDS011;9882;51.166;6.992;2023-03-12T05:07:45;31.15;;;15.75;;
19482;SDS011;9882;51.166;6.992;2023-03-12T05:10:14;26.85;;;12.32;;
19482;SDS011;9882;51.166;6.992;2023-03-12T05:12:44;30.77;;;14.80;;
19482;SDS011;9882;51.166;6.992;2023-03-12T05:15:13;22.50;;;8.07;;
19482;SDS011;9882;51.166;6.992;2023-03-12T05:17:43;19.48;;;8.38;;
19482;SDS011;9882;51.166;6.992;2023-03-12T05:20:13;25.08;;;10.20;;
19482;SDS011;9882;51.166;6.992;2023-03-12T05:22:46;25.00;;;11.27;;
19482;SDS011;9882;51.166;6.992;2023-03-12T05:25:15;24.45;;;10.40;;
19482;SDS011;9882;51.166;6.992;2023-03-12T05:27:45;19.92;;;7.60;;
19482;SDS011;9882;51.166;6.992;2023-03-12T05:30:14;20.30;;;8.90;;
19482;SDS011;9882;51.166;6.992;2023-03-12T05:32:45;23.50;;;9.90;;
19482;SDS011;9882;51.166;6.992;2023-03-12T05:35:16;18.95;;;8.35;;
19482;SDS011;9882;51.166;6.992;2023-03-12T05:37:45;17.85;;;7.65;;
19482;SDS011;9882;51.166;6.992;2023-03-12T05:40:15;19.23;;;7.55;;
19482;SDS011;9882;51.166;6.992;2023-03-12T05:42:45;12.52;;;5.22;;
19482;SDS011;9882;51.166;6.992;2023-03-12T05:45:14;13.15;;;5.88;;
19482;SDS011;9882;51.166;6.992;2023-03-12T05:47:49;24.30;;;6.57;;
19482;SDS011;9882;51.166;6.992;2023-03-12T05:50:20;10.48;;;4.13;;
19482;SDS011;9882;51.166;6.992;2023-03-12T05:52:49;16.95;;;5.75;;
19482;SDS011;9882;51.166;6.992;2023-03-12T05:55:19;11.88;;;5.20;;
19482;SDS011;9882;51.166;6.992;2023-03-12T05:57:48;15.40;;;4.50;;
19482;SDS011;9882;51.166;6.992;2023-03-12T06:00:18;11.75;;;4.65;;
19482;SDS011;9882;51.166;6.992;2023-03-12T06:02:54;14.10;;;4.40;;
19482;SDS011;9882;51.166;6.992;2023-03-12T06:05:25;11.60;;;4.18;;
19482;SDS011;9882;51.166;6.992;2023-03-12T06:07:54;4.70;;;3.40;;
19482;SDS011;9882;51.166;6.992;2023-03-12T06:10:24;10.43;;;4.50;;
19482;SDS011;9882;51.166;6.992;2023-03-12T06:12:53;11.55;;;4.18;;
19482;SDS011;9882;51.166;6.992;2023-03-12T06:15:23;10.35;;;3.97;;
19482;SDS011;9882;51.166;6.992;2023-03-12T06:17:52;9.80;;;4.05;;
19482;SDS011;9882;51.166;6.992;2023-03-12T06:20:22;6.88;;;3.72;;
19482;SDS011;9882;51.166;6.992;2023-03-12T06:22:52;9.30;;;4.25;;
19482;SDS011;9882;51.166;6.992;2023-03-12T06:25:21;13.00;;;4.40;;
19482;SDS011;9882;51.166;6.992;2023-03-12T06:27:50;8.95;;;4.20;;
19482;SDS011;9882;51.166;6.992;2023-03-12T06:30:20;10.02;;;3.75;;
19482;SDS011;9882;51.166;6.992;2023-03-12T06:32:49;6.40;;;3.53;;
19482;SDS011;9882;51.166;6.992;2023-03-12T06:35:18;10.90;;;4.43;;
19482;SDS011;9882;51.166;6.992;2023-03-12T06:37:48;14.75;;;4.22;;
19482;SDS011;9882;51.166;6.992;2023-03-12T06:40:19;12.23;;;3.80;;
19482;SDS011;9882;51.166;6.992;2023-03-12T06:42:48;15.13;;;4.32;;
19482;SDS011;9882;51.166;6.992;2023-03-12T06:45:17;15.10;;;4.40;;
19482;SDS011;9882;51.166;6.992;2023-03-12T06:47:47;10.38;;;3.97;;
19482;SDS011;9882;51.166;6.992;2023-03-12T06:50:16;14.30;;;4.75;;
19482;SDS011;9882;51.166;6.992;2023-03-12T06:52:45;6.25;;;3.08;;
19482;SDS011;9882;51.166;6.992;2023-03-12T06:55:14;9.80;;;3.35;;
19482;SDS011;9882;51.166;6.992;2023-03-12T06:57:45;7.70;;;3.85;;
19482;SDS011;9882;51.166;6.992;2023-03-12T07:00:14;7.07;;;3.80;;
19482;SDS011;9882;51.166;6.992;2023-03-12T07:02:44;9.65;;;4.00;;
19482;SDS011;9882;51.166;6.992;2023-03-12T07:05:13;11.65;;;3.90;;
19482;SDS011;9882;51.166;6.992;2023-03-12T07:07:42;8.20;;;3.60;;
19482;SDS011;9882;51.166;6.992;2023-03-12T07:10:11;14.65;;;4.32;;
19482;SDS011;9882;51.166;6.992;2023-03-12T07:12:41;11.20;;;3.72;;
19482;SDS011;9882;51.166;6.992;2023-03-12T07:15:11;10.70;;;4.35;;
19482;SDS011;9882;51.166;6.992;2023-03-12T07:17:41;9.68;;;3.67;;
19482;SDS011;9882;51.166;6.992;2023-03-12T07:20:10;11.15;;;4.10;;
19482;SDS011;9882;51.166;6.992;2023-03-12T07:22:40;8.35;;;3.63;;
19482;SDS011;9882;51.166;6.992;2023-03-12T07:25:09;9.90;;;3.80;;
19482;SDS011;9882;51.166;6.992;2023-03-12T07:27:39;14.38;;;4.05;;
19482;SDS011;9882;51.166;6.992;2023-03-12T07:30:08;8.55;;;3.90;;
19482;SDS011;9882;51.166;6.992;2023-03-12T07:32:40;21.95;;;4.38;;
19482;SDS011;9882;51.166;6.992;2023-03-12T07:35:09;7.05;;;3.25;;
19482;SDS011;9882;51.166;6.992;2023-03-12T07:37:38;7.00;;;3.60;;
19482;SDS011;9882;51.166;6.992;2023-03-12T07:40:08;11.13;;;4.13;;
19482;SDS011;9882;51.166;6.992;2023-03-12T07:42:38;10.55;;;3.50;;
19482;SDS011;9882;51.166;6.992;2023-03-12T07:45:08;11.68;;;4.28;;
19482;SDS011;9882;51.166;6.992;2023-03-12T07:47:39;11.32;;;4.13;;
19482;SDS011;9882;51.166;6.992;2023-03-12T07:50:09;7.57;;;4.15;;
19482;SDS011;9882;51.166;6.992;2023-03-12T07:52:39;11.82;;;4.10;;
19482;SDS011;9882;51.166;6.992;2023-03-12T07:55:08;9.27;;;3.88;;
19482;SDS011;9882;51.166;6.992;2023-03-12T07:57:38;9.48;;;3.60;;
19482;SDS011;9882;51.166;6.992;2023-03-12T08:00:08;7.47;;;3.63;;
19482;SDS011;9882;51.166;6.992;2023-03-12T08:02:40;7.15;;;3.55;;
19482;SDS011;9882;51.166;6.992;2023-03-12T08:05:09;10.77;;;4.10;;
19482;SDS011;9882;51.166;6.992;2023-03-12T08:07:38;12.55;;;4.47;;
19482;SDS011;9882;51.166;6.992;2023-03-12T08:10:08;9.23;;;4.03;;
19482;SDS011;9882;51.166;6.992;2023-03-12T08:12:38;15.65;;;4.30;;
19482;SDS011;9882;51.166;6.992;2023-03-12T08:15:07;11.82;;;3.95;;
19482;SDS011;9882;51.166;6.992;2023-03-12T08:17:40;12.73;;;4.03;;
19482;SDS011;9882;51.166;6.992;2023-03-12T08:20:10;11.40;;;4.30;;
19482;SDS011;9882;51.166;6.992;2023-03-12T08:22:40;13.15;;;4.22;;
19482;SDS011;9882;51.166;6.992;2023-03-12T08:25:10;12.13;;;4.25;;
19482;SDS011;9882;51.166;6.992;2023-03-12T08:27:39;7.47;;;3.65;;
19482;SDS011;9882;51.166;6.992;2023-03-12T08:30:08;8.07;;;3.70;;
19482;SDS011;9882;51.166;6.992;2023-03-12T08:32:40;7.32;;;3.67;;
19482;SDS011;9882;51.166;6.992;2023-03-12T08:35:09;11.02;;;4.05;;
19482;SDS011;9882;51.166;6.992;2023-03-12T08:37:38;12.30;;;4.57;;
19482;SDS011;9882;51.166;6.992;2023-03-12T08:40:08;8.60;;;3.58;;
19482;SDS011;9882;51.166;6.992;2023-03-12T08:42:39;9.10;;;4.07;;
19482;SDS011;9882;51.166;6.992;2023-03-12T08:45:09;10.32;;;4.20;;
19482;SDS011;9882;51.166;6.992;2023-03-12T08:47:42;7.00;;;3.75;;
19482;SDS011;9882;51.166;6.992;2023-03-12T08:50:11;12.05;;;4.68;;
19482;SDS011;9882;51.166;6.992;2023-03-12T08:52:42;12.45;;;4.10;;
19482;SDS011;9882;51.166;6.992;2023-03-12T08:55:12;13.40;;;4.72;;
19482;SDS011;9882;51.166;6.992;2023-03-12T08:57:41;9.25;;;4.32;;
19482;SDS011;9882;51.166;6.992;2023-03-12T09:00:10;8.63;;;4.28;;
19482;SDS011;9882;51.166;6.992;2023-03-12T09:02:44;11.55;;;4.82;;
19482;SDS011;9882;51.166;6.992;2023-03-12T09:05:13;14.48;;;5.28;;
19482;SDS011;9882;51.166;6.992;2023-03-12T09:07:42;12.63;;;5.38;;
19482;SDS011;9882;51.166;6.992;2023-03-12T09:10:11;7.80;;;4.00;;
19482;SDS011;9882;51.166;6.992;2023-03-12T09:12:42;13.27;;;5.10;;
19482;SDS011;9882;51.166;6.992;2023-03-12T09:15:12;11.98;;;5.03;;
19482;SDS011;9882;51.166;6.992;2023-03-12T09:17:41;14.43;;;4.65;;
19482;SDS011;9882;51.166;6.992;2023-03-12T09:20:12;13.85;;;4.97;;
19482;SDS011;9882;51.166;6.992;2023-03-12T09:22:42;13.40;;;5.22;;
19482;SDS011;9882;51.166;6.992;2023-03-12T09:25:11;9.80;;;5.00;;
19482;SDS011;9882;51.166;6.992;2023-03-12T09:27:58;13.25;;;5.45;;
19482;SDS011;9882;51.166;6.992;2023-03-12T09:30:28;10.30;;;4.65;;
19482;SDS011;9882;51.166;6.992;2023-03-12T09:32:58;16.40;;;5.63;;
19482;SDS011;9882;51.166;6.992;2023-03-12T09:35:28;12.07;;;5.10;;
19482;SDS011;9882;51.166;6.992;2023-03-12T09:37:57;21.25;;;5.40;;
19482;SDS011;9882;51.166;6.992;2023-03-12T09:40:28;15.55;;;5.35;;
19482;SDS011;9882;51.166;6.992;2023-03-12T09:43:02;18.15;;;6.15;;
19482;SDS011;9882;51.166;6.992;2023-03-12T09:45:37;12.63;;;5.50;;
19482;SDS011;9882;51.166;6.992;2023-03-12T09:48:12;18.92;;;5.72;;
19482;SDS011;9882;51.166;6.992;2023-03-12T09:50:45;9.70;;;4.90;;
19482;SDS011;9882;51.166;6.992;2023-03-12T09:53:18;10.93;;;5.22;;
19482;SDS011;9882;51.166;6.992;2023-03-12T09:58:52;18.48;;;6.00;;
19482;SDS011;9882;51.166;6.992;2023-03-12T10:01:46;15.32;;;5.75;;
19482;SDS011;9882;51.166;6.992;2023-03-12T10:04:25;15.55;;;5.22;;
19482;SDS011;9882;51.166;6.992;2023-03-12T10:07:24;13.18;;;5.53;;
19482;SDS011;9882;51.166;6.992;2023-03-12T10:13:10;11.50;;;4.95;;
19482;SDS011;9882;51.166;6.992;2023-03-12T10:15:50;12.70;;;5.82;;
19482;SDS011;9882;51.166;6.992;2023-03-12T10:19:22;10.90;;;4.97;;
19482;SDS011;9882;51.166;6.992;2023-03-12T10:28:13;14.25;;;6.03;;
19482;SDS011;9882;51.166;6.992;2023-03-12T10:30:46;14.05;;;6.05;;
19482;SDS011;9882;51.166;6.992;2023-03-12T10:33:19;11.82;;;5.22;;
19482;SDS011;9882;51.166;6.992;2023-03-12T10:35:55;13.35;;;5.60;;
19482;SDS011;9882;51.166;6.992;2023-03-12T10:38:25;14.55;;;6.07;;
19482;SDS011;9882;51.166;6.992;2023-03-12T10:40:58;10.73;;;5.70;;
19482;SDS011;9882;51.166;6.992;2023-03-12T10:43:39;14.45;;;5.70;;
19482;SDS011;9882;51.166;6.992;2023-03-12T10:46:32;12.15;;;5.97;;
19482;SDS011;9882;51.166;6.992;2023-03-12T10:49:23;15.57;;;6.20;;
19482;SDS011;9882;51.166;6.992;2023-03-12T10:51:55;13.27;;;6.10;;
19482;SDS011;9882;51.166;6.992;2023-03-12T10:54:29;12.77;;;5.68;;
19482;SDS011;9882;51.166;6.992;2023-03-12T10:57:02;12.23;;;5.47;;
19482;SDS011;9882;51.166;6.992;2023-03-12T10:59:33;15.02;;;6.28;;
19482;SDS011;9882;51.166;6.992;2023-03-12T11:02:22;15.63;;;6.65;;
19482;SDS011;9882;51.166;6.992;2023-03-12T11:04:58;14.27;;;6.50;;
19482;SDS011;9882;51.166;6.992;2023-03-12T11:07:29;13.32;;;6.25;;
19482;SDS011;9882;51.166;6.992;2023-03-12T11:12:58;17.70;;;6.82;;
19482;SDS011;9882;51.166;6.992;2023-03-12T11:15:30;23.20;;;7.55;;
19482;SDS011;9882;51.166;6.992;2023-03-12T11:18:23;18.73;;;6.43;;
19482;SDS011;9882;51.166;6.992;2023-03-12T11:21:15;16.77;;;6.57;;
19482;SDS011;9882;51.166;6.992;2023-03-12T11:24:05;16.98;;;7.35;;
19482;SDS011;9882;51.166;6.992;2023-03-12T11:26:39;17.38;;;6.93;;
19482;SDS011;9882;51.166;6.992;2023-03-12T11:29:20;16.88;;;7.22;;
19482;SDS011;9882;51.166;6.992;2023-03-12T11:31:59;14.25;;;7.07;;
19482;SDS011;9882;51.166;6.992;2023-03-12T11:34:38;17.52;;;7.90;;
19482;SDS011;9882;51.166;6.992;2023-03-12T11:37:20;15.93;;;7.55;;
19482;SDS011;9882;51.166;6.992;2023-03-12T11:40:01;17.35;;;7.45;;
19482;SDS011;9882;51.166;6.992;2023-03-12T11:42:45;17.15;;;6.70;;
19482;SDS011;9882;51.166;6.992;2023-03-12T11:46:24;20.23;;;7.43;;
19482;SDS011;9882;51.166;6.992;2023-03-12T11:49:03;25.38;;;9.40;;
19482;SDS011;9882;51.166;6.992;2023-03-12T11:52:01;17.92;;;7.15;;
19482;SDS011;9882;51.166;6.992;2023-03-12T11:54:59;20.33;;;9.35;;
19482;SDS011;9882;51.166;6.992;2023-03-12T12:00:48;24.00;;;10.88;;
19482;SDS011;9882;51.166;6.992;2023-03-12T12:03:41;23.55;;;8.80;;
19482;SDS011;9882;51.166;6.992;2023-03-12T12:06:25;23.17;;;8.98;;
19482;SDS011;9882;51.166;6.992;2023-03-12T12:09:10;25.58;;;10.82;;
19482;SDS011;9882;51.166;6.992;2023-03-12T12:11:52;35.05;;;11.77;;
19482;SDS011;9882;51.166;6.992;2023-03-12T12:14:46;29.45;;;12.63;;
19482;SDS011;9882;51.166;6.992;2023-03-12T12:17:27;28.35;;;11.38;;
19482;SDS011;9882;51.166;6.992;2023-03-12T12:20:13;35.25;;;13.45;;
19482;SDS011;9882;51.166;6.992;2023-03-12T12:22:58;25.25;;;11.02;;
19482;SDS011;9882;51.166;6.992;2023-03-12T12:25:44;35.60;;;13.63;;
19482;SDS011;9882;51.166;6.992;2023-03-12T12:28:43;25.27;;;10.32;;
19482;SDS011;9882;51.166;6.992;2023-03-12T12:31:28;30.45;;;10.80;;
19482;SDS011;9882;51.166;6.992;2023-03-12T12:37:12;38.45;;;13.50;;
19482;SDS011;9882;51.166;6.992;2023-03-12T12:40:03;32.65;;;12.32;;
19482;SDS011;9882;51.166;6.992;2023-03-12T12:42:43;33.95;;;12.93;;
19482;SDS011;9882;51.166;6.992;2023-03-12T12:45:22;29.77;;;12.32;;
19482;SDS011;9882;51.166;6.992;2023-03-12T12:47:56;41.25;;;12.88;;
19482;SDS011;9882;51.166;6.992;2023-03-12T12:50:30;38.92;;;11.95;;
19482;SDS011;9882;51.166;6.992;2023-03-12T12:53:16;35.58;;;12.48;;
19482;SDS011;9882;51.166;6.992;2023-03-12T12:56:14;44.90;;;12.93;;
19482;SDS011;9882;51.166;6.992;2023-03-12T12:58:59;37.03;;;12.60;;
19482;SDS011;9882;51.166;6.992;2023-03-12T13:01:37;32.38;;;12.25;;
19482;SDS011;9882;51.166;6.992;2023-03-12T13:04:08;44.72;;;14.57;;
19482;SDS011;9882;51.166;6.992;2023-03-12T13:06:57;54.92;;;14.30;;
19482;SDS011;9882;51.166;6.992;2023-03-12T13:09:39;45.38;;;14.55;;
19482;SDS011;9882;51.166;6.992;2023-03-12T13:12:24;52.90;;;14.43;;
19482;SDS011;9882;51.166;6.992;2023-03-12T13:14:57;33.35;;;12.55;;
19482;SDS011;9882;51.166;6.992;2023-03-12T13:17:29;39.88;;;13.90;;
19482;SDS011;9882;51.166;6.992;2023-03-12T13:20:12;45.60;;;14.52;;
19482;SDS011;9882;51.166;6.992;2023-03-12T13:25:52;35.53;;;12.52;;
19482;SDS011;9882;51.166;6.992;2023-03-12T13:28:31;33.83;;;11.57;;
19482;SDS011;9882;51.166;6.992;2023-03-12T13:31:32;40.58;;;12.07;;
19482;SDS011;9882;51.166;6.992;2023-03-12T13:46:38;38.53;;;9.95;;
19482;SDS011;9882;51.166;6.992;2023-03-12T13:49:13;41.65;;;8.82;;
19482;SDS011;9882;51.166;6.992;2023-03-12T13:51:45;28.52;;;7.53;;
19482;SDS011;9882;51.166;6.992;2023-03-12T13:54:23;30.08;;;7.63;;
19482;SDS011;9882;51.166;6.992;2023-03-12T13:56:56;32.10;;;7.97;;
19482;SDS011;9882;51.166;6.992;2023-03-12T13:59:45;42.55;;;8.05;;
19482;SDS011;9882;51.166;6.992;2023-03-12T14:02:48;31.15;;;6.75;;
19482;SDS011;9882;51.166;6.992;2023-03-12T14:05:19;22.13;;;6.68;;
19482;SDS011;9882;51.166;6.992;2023-03-12T14:07:54;32.30;;;7.07;;
19482;SDS011;9882;51.166;6.992;2023-03-12T14:10:39;25.45;;;6.75;;
19482;SDS011;9882;51.166;6.992;2023-03-12T14:16:20;30.02;;;7.15;;
19482;SDS011;9882;51.166;6.992;2023-03-12T14:18:56;35.33;;;6.95;;
19482;SDS011;9882;51.166;6.992;2023-03-12T14:21:26;29.50;;;6.97;;
19482;SDS011;9882;51.166;6.992;2023-03-12T14:24:01;24.67;;;5.93;;
19482;SDS011;9882;51.166;6.992;2023-03-12T14:26:37;29.77;;;6.40;;
19482;SDS011;9882;51.166;6.992;2023-03-12T14:29:20;29.23;;;6.25;;
19482;SDS011;9882;51.166;6.992;2023-03-12T14:31:58;34.97;;;6.65;;
19482;SDS011;9882;51.166;6.992;2023-03-12T14:34:32;33.30;;;6.05;;
19482;SDS011;9882;51.166;6.992;2023-03-12T14:37:14;28.85;;;6.07;;
19482;SDS011;9882;51.166;6.992;2023-03-12T14:40:20;23.58;;;5.40;;
19482;SDS011;9882;51.166;6.992;2023-03-12T14:42:51;30.13;;;5.75;;
19482;SDS011;9882;51.166;6.992;2023-03-12T14:45:21;27.33;;;4.82;;
19482;SDS011;9882;51.166;6.992;2023-03-12T14:47:53;25.10;;;4.90;;
19482;SDS011;9882;51.166;6.992;2023-03-12T14:50:25;29.67;;;5.30;;
19482;SDS011;9882;51.166;6.992;2023-03-12T14:53:09;29.95;;;5.45;;
19482;SDS011;9882;51.166;6.992;2023-03-12T14:55:40;26.00;;;5.30;;
19482;SDS011;9882;51.166;6.992;2023-03-12T14:58:16;22.63;;;5.55;;
19482;SDS011;9882;51.166;6.992;2023-03-12T15:00:53;22.90;;;5.38;;
19482;SDS011;9882;51.166;6.992;2023-03-12T15:03:26;28.88;;;5.38;;
19482;SDS011;9882;51.166;6.992;2023-03-12T15:05:57;33.90;;;6.00;;
19482;SDS011;9882;51.166;6.992;2023-03-12T15:08:27;28.35;;;6.10;;
19482;SDS011;9882;51.166;6.992;2023-03-12T15:10:57;32.70;;;6.13;;
19482;SDS011;9882;51.166;6.992;2023-03-12T15:13:26;27.95;;;5.18;;
19482;SDS011;9882;51.166;6.992;2023-03-12T15:15:56;30.15;;;5.53;;
19482;SDS011;9882;51.166;6.992;2023-03-12T15:18:27;22.92;;;5.50;;
19482;SDS011;9882;51.166;6.992;2023-03-12T15:20:59;35.33;;;5.38;;
19482;SDS011;9882;51.166;6.992;2023-03-12T15:23:31;20.42;;;4.65;;
19482;SDS011;9882;51.166;6.992;2023-03-12T15:26:09;24.38;;;5.43;;
19482;SDS011;9882;51.166;6.992;2023-03-12T15:28:40;34.42;;;6.13;;
19482;SDS011;9882;51.166;6.992;2023-03-12T15:31:12;30.33;;;5.53;;
19482;SDS011;9882;51.166;6.992;2023-03-12T15:33:44;24.02;;;5.10;;
19482;SDS011;9882;51.166;6.992;2023-03-12T15:36:27;28.52;;;5.60;;
19482;SDS011;9882;51.166;6.992;2023-03-12T15:39:03;27.88;;;5.15;;
19482;SDS011;9882;51.166;6.992;2023-03-12T15:41:49;41.10;;;5.45;;
19482;SDS011;9882;51.166;6.992;2023-03-12T15:44:18;31.33;;;6.13;;
19482;SDS011;9882;51.166;6.992;2023-03-12T15:46:50;27.77;;;5.97;;
19482;SDS011;9882;51.166;6.992;2023-03-12T15:49:24;27.50;;;5.35;;
19482;SDS011;9882;51.166;6.992;2023-03-12T15:51:58;33.90;;;5.78;;
19482;SDS011;9882;51.166;6.992;2023-03-12T15:54:30;25.13;;;5.30;;
19482;SDS011;9882;51.166;6.992;2023-03-12T15:57:19;33.40;;;5.82;;
19482;SDS011;9882;51.166;6.992;2023-03-12T16:00:11;36.95;;;5.50;;
19482;SDS011;9882;51.166;6.992;2023-03-12T16:02:47;33.33;;;6.38;;
19482;SDS011;9882;51.166;6.992;2023-03-12T16:05:21;21.20;;;6.05;;
19482;SDS011;9882;51.166;6.992;2023-03-12T16:07:52;23.15;;;5.68;;